Time;durP1;ratioP1;P1;durP2;ratioP2;P2;SDS_P1;SDS_P2;PMS_P1;PMS_P2;Temp;Humidity;BMP_temperature;BMP_pressure;BME280_temperature;BME280_humidity;BME280_pressure;Samples;Min_cycle;Max_cycle;Signal;HPM_P1;HPM_P2
2021/12/04 00:02:43;;;;;;;4.13;3.80;;;3.90;40.10;;;;;;10361516;28;20240;-69
2021/12/04 00:07:47;;;;;;;4.20;3.80;;;3.90;40.10;;;;;;10355969;28;20249;-69
2021/12/04 00:12:51;;;;;;;4.30;3.90;;;3.90;40.10;;;;;;10353092;28;20278;-69
2021/12/04 00:17:57;;;;;;;4.37;3.97;;;3.90;40.10;;;;;;10357803;28;20238;-69
2021/12/04 00:23:01;;;;;;;4.20;3.80;;;3.80;40.00;;;;;;10358980;28;20329;-69
2021/12/04 00:28:04;;;;;;;4.70;3.73;;;3.80;40.00;;;;;;10357795;28;20226;-69
2021/12/04 00:33:14;;;;;;;6.07;3.33;;;3.80;40.10;;;;;;10357747;28;20230;-69
2021/12/04 00:49:17;;;;;;;3.40;3.10;;;3.90;40.10;;;;;;10357762;28;20305;-69
2021/12/04 00:54:22;;;;;;;3.50;3.20;;;4.10;40.20;;;;;;10356060;28;20234;-69
2021/12/04 00:59:26;;;;;;;3.70;3.37;;;3.90;39.90;;;;;;10359847;28;20723;-69
2021/12/04 01:04:31;;;;;;;3.30;3.00;;;4.00;40.10;;;;;;10358692;28;20292;-69
2021/12/04 01:09:34;;;;;;;3.30;3.00;;;4.00;40.70;;;;;;10359427;28;20244;-69
2021/12/04 01:14:37;;;;;;;3.40;3.10;;;4.00;40.20;;;;;;10357015;28;20230;-69
2021/12/04 01:19:42;;;;;;;3.30;3.00;;;4.00;40.10;;;;;;10359067;28;20629;-69
2021/12/04 01:24:45;;;;;;;3.27;2.97;;;4.00;39.90;;;;;;10358944;28;20234;-69
2021/12/04 01:29:48;;;;;;;3.10;2.90;;;4.10;40.10;;;;;;10356115;28;21057;-69
2021/12/04 01:34:54;;;;;;;3.63;3.33;;;4.20;40.10;;;;;;10378477;23;20728;-72
2021/12/04 01:39:58;;;;;;;3.47;3.17;;;4.20;39.90;;;;;;10365950;28;20234;-74
2021/12/04 01:45:01;;;;;;;2.83;2.60;;;4.20;39.90;;;;;;10365791;28;20253;-74
2021/12/04 01:50:07;;;;;;;2.80;2.60;;;4.10;39.80;;;;;;10365381;28;20238;-74
2021/12/04 01:55:10;;;;;;;2.70;2.50;;;4.20;40.00;;;;;;10366047;28;20234;-74
2021/12/04 02:00:14;;;;;;;4.70;2.67;;;4.10;40.10;;;;;;10365325;28;20252;-74
2021/12/04 02:05:18;;;;;;;2.87;2.67;;;4.10;40.20;;;;;;10370142;28;20230;-74
2021/12/04 02:10:22;;;;;;;2.63;2.43;;;4.30;40.40;;;;;;10373062;28;20245;-74
2021/12/04 02:15:25;;;;;;;2.53;2.33;;;4.30;40.30;;;;;;10370965;28;20730;-75
2021/12/04 02:20:33;;;;;;;2.50;2.30;;;4.10;40.30;;;;;;10372883;28;20233;-74
2021/12/04 02:25:36;;;;;;;2.97;2.27;;;4.10;40.50;;;;;;10371767;28;20614;-74
2021/12/04 02:30:44;;;;;;;2.67;2.10;;;4.10;40.50;;;;;;10371723;28;20238;-74
2021/12/04 02:35:51;;;;;;;1.90;1.80;;;4.10;40.80;;;;;;10371851;28;20319;-74
2021/12/04 02:40:56;;;;;;;2.50;2.30;;;4.20;41.10;;;;;;10371288;28;20958;-74
2021/12/04 02:46:00;;;;;;;2.10;1.90;;;4.10;41.00;;;;;;10371020;28;20304;-74
2021/12/04 02:51:04;;;;;;;1.97;1.87;;;4.20;41.00;;;;;;10371156;28;20674;-74
2021/12/04 02:56:08;;;;;;;2.00;1.90;;;4.30;41.30;;;;;;10371149;28;20242;-74
2021/12/04 03:01:11;;;;;;;1.97;1.87;;;4.30;41.20;;;;;;10370855;28;20245;-74
2021/12/04 03:06:16;;;;;;;1.80;1.70;;;4.40;41.20;;;;;;10370403;28;20238;-74
2021/12/04 03:11:19;;;;;;;1.93;1.77;;;4.40;41.30;;;;;;10370880;28;20238;-73
2021/12/04 03:16:22;;;;;;;1.70;1.60;;;4.50;41.20;;;;;;10369337;28;20619;-74
2021/12/04 03:21:27;;;;;;;1.60;1.50;;;4.50;41.20;;;;;;10369918;28;20300;-73
2021/12/04 03:26:31;;;;;;;1.60;1.50;;;4.50;41.30;;;;;;10369564;28;20639;-74
2021/12/04 03:31:46;;;;;;;1.70;1.60;;;4.50;41.30;;;;;;10369200;28;20811;-74
2021/12/04 03:42:11;;;;;;;1.60;1.50;;;4.50;41.70;;;;;;10368758;28;20236;-74
2021/12/04 03:47:15;;;;;;;1.60;1.50;;;4.50;41.90;;;;;;10369153;28;20238;-74
2021/12/04 03:52:19;;;;;;;1.50;1.40;;;4.60;42.00;;;;;;10368850;28;20241;-74
2021/12/04 03:57:22;;;;;;;1.50;1.40;;;4.70;42.20;;;;;;10368703;28;20240;-73
2021/12/04 04:02:26;;;;;;;1.60;1.50;;;4.50;41.70;;;;;;10368591;28;20226;-74
2021/12/04 04:07:30;;;;;;;1.60;1.50;;;4.50;41.80;;;;;;10368252;28;20238;-74
2021/12/04 04:12:34;;;;;;;1.13;1.07;;;4.50;42.20;;;;;;10368334;28;20380;-74
2021/12/04 04:17:42;;;;;;;1.37;1.27;;;4.50;42.00;;;;;;10365848;28;20248;-74
2021/12/04 04:22:48;;;;;;;1.03;1.03;;;4.40;42.20;;;;;;10368081;28;20736;-75
2021/12/04 04:27:51;;;;;;;2.70;1.00;;;4.40;42.40;;;;;;10366903;28;20617;-76
2021/12/04 04:32:55;;;;;;;1.00;1.00;;;4.40;42.90;;;;;;10367576;28;20245;-75
2021/12/04 04:38:08;;;;;;;0.80;0.80;;;4.40;42.50;;;;;;10366871;28;20242;-75
2021/12/04 04:59:22;;;;;;;1.00;0.87;;;4.40;43.00;;;;;;10323221;28;20229;-75
2021/12/04 05:15:13;;;;;;;0.93;0.90;;;4.50;43.20;;;;;;10366053;28;20230;-75
2021/12/04 05:20:21;;;;;;;0.77;0.77;;;4.60;43.20;;;;;;10366141;28;20244;-75
2021/12/04 05:25:26;;;;;;;1.23;0.90;;;4.60;43.30;;;;;;10365985;28;20240;-75
2021/12/04 05:30:29;;;;;;;1.37;0.87;;;4.70;43.50;;;;;;10365903;28;20238;-76
2021/12/04 05:35:32;;;;;;;1.30;1.23;;;4.80;43.20;;;;;;10365882;28;20230;-75
2021/12/04 05:40:37;;;;;;;1.70;1.60;;;4.80;43.00;;;;;;10371787;28;20242;-75
2021/12/04 05:45:44;;;;;;;1.67;1.57;;;4.80;43.20;;;;;;10373512;28;20610;-75
2021/12/04 05:51:14;;;;;;;1.60;1.50;;;4.80;43.00;;;;;;10373538;28;20242;-75
2021/12/04 05:56:19;;;;;;;1.50;1.40;;;4.70;43.20;;;;;;10373266;28;20230;-75
2021/12/04 06:01:24;;;;;;;1.50;1.40;;;4.70;43.40;;;;;;10373032;28;20258;-76
2021/12/04 06:06:27;;;;;;;1.67;1.57;;;4.70;43.30;;;;;;10373017;28;20230;-75
2021/12/04 06:11:32;;;;;;;1.60;1.50;;;4.70;43.30;;;;;;10372649;28;20786;-75
2021/12/04 06:16:35;;;;;;;2.53;1.60;;;4.70;43.60;;;;;;10372205;28;20241;-75
2021/12/04 06:27:01;;;;;;;1.87;1.77;;;4.80;43.60;;;;;;10371676;28;20244;-76
2021/12/04 06:32:05;;;;;;;2.30;2.10;;;4.80;43.60;;;;;;10370605;28;20231;-76
2021/12/04 06:37:08;;;;;;;1.90;1.80;;;4.90;43.50;;;;;;10371321;28;20238;-76
2021/12/04 06:42:12;;;;;;;2.13;1.93;;;5.00;43.60;;;;;;10371130;28;20285;-76
2021/12/04 06:47:16;;;;;;;2.00;1.90;;;5.00;43.70;;;;;;10371245;28;20248;-77
2021/12/04 06:52:22;;;;;;;2.00;1.90;;;5.10;43.70;;;;;;10370321;28;20244;-76
2021/12/04 06:57:28;;;;;;;2.80;2.60;;;5.10;43.70;;;;;;10371068;28;20261;-76
2021/12/04 07:02:31;;;;;;;2.60;2.40;;;5.20;44.00;;;;;;10370237;28;20234;-77
2021/12/04 07:07:35;;;;;;;3.10;2.83;;;5.20;43.60;;;;;;10370775;28;20325;-76
2021/12/04 07:12:39;;;;;;;5.97;3.57;;;5.30;43.80;;;;;;10370992;28;20248;-76
2021/12/04 07:17:42;;;;;;;3.60;3.30;;;5.40;43.90;;;;;;10370960;28;20238;-76
2021/12/04 07:22:46;;;;;;;5.10;4.67;;;5.50;43.70;;;;;;10369822;28;20242;-76
2021/12/04 07:27:51;;;;;;;5.40;4.90;;;5.50;43.70;;;;;;10369139;28;20241;-77
2021/12/04 07:32:55;;;;;;;5.37;4.87;;;5.50;43.80;;;;;;10369543;28;20238;-76
2021/12/04 07:38:00;;;;;;;4.83;4.43;;;5.60;43.80;;;;;;10369682;28;20238;-76
2021/12/04 07:43:05;;;;;;;4.00;3.60;;;5.60;43.40;;;;;;10368778;28;20230;-76
2021/12/04 07:48:09;;;;;;;3.70;3.47;;;5.70;43.90;;;;;;10348449;28;20249;-77
2021/12/04 07:53:12;;;;;;;4.43;4.03;;;5.70;43.80;;;;;;10355732;28;20256;-77
2021/12/04 07:58:16;;;;;;;4.00;3.70;;;5.70;43.60;;;;;;10359737;28;20234;-77
2021/12/04 08:03:19;;;;;;;3.93;3.63;;;5.70;43.80;;;;;;10367118;28;20238;-77
2021/12/04 08:08:23;;;;;;;4.27;3.87;;;5.70;43.70;;;;;;10357241;28;20241;-76
2021/12/04 08:13:28;;;;;;;5.00;4.47;;;5.80;43.80;;;;;;10358489;28;20241;-78
2021/12/04 08:18:31;;;;;;;3.73;3.43;;;5.80;44.00;;;;;;10351860;28;20238;-78
2021/12/04 08:23:34;;;;;;;3.57;3.27;;;5.80;43.80;;;;;;10351478;28;20740;-78
2021/12/04 08:28:39;;;;;;;3.20;3.00;;;5.80;43.90;;;;;;10359322;28;20273;-78
2021/12/04 08:33:43;;;;;;;2.73;2.53;;;5.80;44.10;;;;;;10364061;28;20235;-78
2021/12/04 08:38:47;;;;;;;3.87;3.43;;;5.80;44.00;;;;;;10365348;28;20230;-78
2021/12/04 08:43:53;;;;;;;3.30;3.00;;;5.90;44.10;;;;;;10363232;28;20241;-78
2021/12/04 08:48:57;;;;;;;2.80;2.60;;;5.90;44.40;;;;;;10358728;28;20242;-78
2021/12/04 08:54:00;;;;;;;3.20;3.00;;;5.90;44.10;;;;;;10360449;28;20237;-77
2021/12/04 08:59:07;;;;;;;4.13;3.73;;;5.90;44.10;;;;;;10355891;28;20596;-78
2021/12/04 09:04:13;;;;;;;3.80;3.20;;;5.90;44.50;;;;;;10352779;28;20620;-78
2021/12/04 09:09:17;;;;;;;4.80;3.63;;;5.90;44.40;;;;;;10353669;28;20242;-79
2021/12/04 09:14:25;;;;;;;4.33;3.93;;;5.90;44.30;;;;;;10358136;28;20226;-79
2021/12/04 09:19:29;;;;;;;4.17;3.20;;;5.90;44.90;;;;;;10359320;28;20608;-80
2021/12/04 09:24:38;;;;;;;3.57;3.27;;;6.00;44.50;;;;;;10357197;28;20248;-79
2021/12/04 09:29:59;;;;;;;4.47;4.07;;;6.00;44.50;;;;;;10355872;28;20647;-79
2021/12/04 10:02:13;;;;;;;10.63;4.50;;;6.20;45.10;;;;;;10394040;23;20234;-69
2021/12/04 10:12:59;;;;;;;16.00;4.23;;;6.30;45.10;;;;;;10370704;28;20230;-70
2021/12/04 10:18:36;;;;;;;4.47;3.17;;;6.20;45.10;;;;;;10371190;28;20337;-70
2021/12/04 10:24:08;;;;;;;8.03;3.43;;;6.30;45.50;;;;;;10372019;28;20233;-70
2021/12/04 10:34:37;;;;;;;4.00;2.90;;;6.30;45.80;;;;;;10384583;28;20775;-71
2021/12/04 10:39:40;;;;;;;3.03;2.83;;;6.30;45.70;;;;;;10382185;28;20244;-70
2021/12/04 10:44:49;;;;;;;3.63;2.93;;;6.30;45.60;;;;;;10381266;28;20239;-70
2021/12/04 10:50:07;;;;;;;4.40;2.73;;;6.30;45.90;;;;;;10378288;28;20222;-72
2021/12/04 10:55:15;;;;;;;3.50;3.20;;;6.40;46.90;;;;;;10379646;28;20600;-71
2021/12/04 11:00:24;;;;;;;3.00;2.80;;;6.40;46.60;;;;;;10375409;28;20226;-71
2021/12/04 11:22:13;;;;;;;2.83;2.63;;;6.80;47.50;;;;;;10380378;28;20230;-72
2021/12/04 11:27:35;;;;;;;3.03;2.73;;;6.90;46.70;;;;;;10385861;28;20226;-72
2021/12/04 11:38:23;;;;;;;2.77;2.57;;;7.10;46.70;;;;;;10374315;28;20233;-71
2021/12/04 11:43:32;;;;;;;3.33;3.13;;;7.20;47.80;;;;;;10380957;28;20222;-71
2021/12/04 11:48:37;;;;;;;15.23;12.60;;;7.30;46.50;;;;;;10376739;28;20234;-71
2021/12/04 11:53:43;;;;;;;8.23;7.33;;;7.40;46.60;;;;;;10383434;28;20716;-72
2021/12/04 11:58:48;;;;;;;14.53;12.93;;;7.50;46.70;;;;;;10379221;28;20242;-72
2021/12/04 12:03:53;;;;;;;13.33;11.63;;;7.60;46.60;;;;;;10375758;28;20729;-72
2021/12/04 12:09:07;;;;;;;7.37;6.30;;;7.50;46.40;;;;;;10376401;28;20905;-72
2021/12/04 12:14:12;;;;;;;6.03;5.53;;;7.70;47.00;;;;;;10373656;28;20226;-72
2021/12/04 12:19:25;;;;;;;5.80;5.30;;;7.80;46.00;;;;;;10375428;28;20256;-72
2021/12/04 12:40:44;;;;;;;5.53;5.07;;;7.90;46.00;;;;;;10380429;28;20236;-73
2021/12/04 12:45:55;;;;;;;7.37;6.20;;;7.90;46.30;;;;;;10378783;28;20230;-73
2021/12/04 12:51:09;;;;;;;8.47;6.67;;;7.90;46.90;;;;;;10370773;28;20537;-72
2021/12/04 12:56:16;;;;;;;8.20;7.40;;;8.00;46.90;;;;;;10374281;28;20250;-72
2021/12/04 13:12:21;;;;;;;6.63;6.00;;;8.10;47.10;;;;;;10375255;28;20233;-72
2021/12/04 13:17:29;;;;;;;7.27;6.57;;;8.10;46.40;;;;;;10375757;28;20233;-72
2021/12/04 13:22:34;;;;;;;12.47;9.77;;;8.10;46.30;;;;;;10369888;28;20318;-71
2021/12/04 13:32:45;;;;;;;10.03;8.37;;;8.20;46.50;;;;;;10372963;28;20234;-71
2021/12/04 13:37:49;;;;;;;7.20;6.50;;;8.20;46.50;;;;;;10365913;28;20230;-72
2021/12/04 13:42:54;;;;;;;7.23;6.53;;;8.20;46.30;;;;;;10371632;28;20572;-72
2021/12/04 13:47:59;;;;;;;7.87;7.07;;;8.30;46.50;;;;;;10371178;28;20248;-72
2021/12/04 13:53:06;;;;;;;7.23;6.60;;;8.30;46.30;;;;;;10368701;28;20233;-72
2021/12/04 13:58:11;;;;;;;7.90;7.20;;;8.30;46.40;;;;;;10373034;28;20233;-71
2021/12/04 14:03:14;;;;;;;8.37;7.37;;;8.30;46.40;;;;;;10383674;28;20233;-71
2021/12/04 14:08:21;;;;;;;12.00;10.90;;;8.30;46.10;;;;;;10384552;28;20234;-71
2021/12/04 14:13:26;;;;;;;17.63;15.97;;;8.30;46.00;;;;;;10385541;28;20314;-71
2021/12/04 14:18:30;;;;;;;14.87;13.43;;;8.40;46.20;;;;;;10383516;28;20727;-69
2021/12/04 14:23:34;;;;;;;14.70;13.30;;;8.30;46.00;;;;;;10380066;28;20225;-69
2021/12/04 14:28:41;;;;;;;15.53;13.97;;;8.30;45.90;;;;;;10383369;28;20464;-69
2021/12/04 14:33:45;;;;;;;12.53;11.23;;;8.30;46.20;;;;;;10385068;28;20711;-68
2021/12/04 14:38:49;;;;;;;12.07;10.83;;;8.30;45.90;;;;;;10386213;28;20757;-72
2021/12/04 14:43:53;;;;;;;9.63;8.77;;;8.30;46.00;;;;;;10395439;23;20226;-70
2021/12/04 14:49:01;;;;;;;7.57;6.97;;;8.30;46.00;;;;;;10275992;28;20227;-71
2021/12/04 14:54:04;;;;;;;8.13;7.33;;;8.30;45.70;;;;;;10273527;28;20862;-72
2021/12/04 14:59:17;;;;;;;7.50;6.70;;;8.20;45.70;;;;;;10241360;28;20302;-72
2021/12/04 15:04:20;;;;;;;5.10;4.70;;;8.20;46.40;;;;;;10242998;28;20240;-72
2021/12/04 15:09:24;;;;;;;2.07;1.90;;;8.20;45.90;;;;;;10238121;28;20252;-72
2021/12/04 15:14:34;;;;;;;1.70;1.57;;;8.20;47.20;;;;;;10236623;28;20292;-71
2021/12/04 15:19:39;;;;;;;1.63;1.37;;;8.30;48.70;;;;;;10243712;28;20240;-72
2021/12/04 15:24:45;;;;;;;1.50;1.40;;;8.50;49.10;;;;;;10239214;28;20284;-71
2021/12/04 15:29:52;;;;;;;1.03;1.03;;;8.70;49.30;;;;;;10242502;28;20239;-72
2021/12/04 15:35:03;;;;;;;0.90;0.90;;;8.90;49.40;;;;;;10237232;28;20267;-72
2021/12/04 15:40:11;;;;;;;1.20;1.10;;;9.10;48.90;;;;;;10235475;28;20232;-72
2021/12/04 15:45:28;;;;;;;0.90;0.90;;;9.20;48.90;;;;;;10236533;28;20244;-72
2021/12/04 15:50:51;;;;;;;0.90;0.90;;;9.30;49.10;;;;;;10237823;28;20234;-72
2021/12/04 15:55:56;;;;;;;1.30;1.20;;;9.40;49.30;;;;;;10237525;28;20232;-72
2021/12/04 16:01:08;;;;;;;0.80;0.80;;;9.60;48.80;;;;;;10239332;28;20250;-72
2021/12/04 16:06:13;;;;;;;1.00;1.00;;;9.70;49.20;;;;;;10229602;28;20256;-72
2021/12/04 16:11:17;;;;;;;1.20;1.03;;;9.80;48.50;;;;;;10235900;28;20308;-71
2021/12/04 16:16:25;;;;;;;0.90;0.90;;;9.80;48.70;;;;;;10238209;28;20599;-72
2021/12/04 16:21:29;;;;;;;1.00;1.00;;;9.90;48.90;;;;;;10235236;28;20320;-73
2021/12/04 16:26:35;;;;;;;1.00;1.00;;;10.00;47.60;;;;;;10233897;28;20605;-73
2021/12/04 16:32:11;;;;;;;1.70;1.60;;;10.00;47.70;;;;;;10237412;28;20244;-73
2021/12/04 16:37:20;;;;;;;1.10;1.00;;;10.10;48.60;;;;;;10235105;28;20228;-73
2021/12/04 16:42:23;;;;;;;1.00;1.00;;;10.10;47.70;;;;;;10231628;28;20593;-84
2021/12/04 16:47:52;;;;;;;1.33;1.30;;;10.10;47.60;;;;;;10239078;28;20240;-71
2021/12/04 16:58:17;;;;;;;1.73;1.63;;;10.10;47.70;;;;;;10232923;28;20224;-70
2021/12/04 17:03:22;;;;;;;1.00;1.00;;;10.20;47.60;;;;;;10233031;28;20610;-77
2021/12/04 17:08:26;;;;;;;3.17;2.97;;;10.20;47.80;;;;;;10235955;28;20275;-70
2021/12/04 17:13:29;;;;;;;1.37;1.27;;;10.20;47.50;;;;;;10234142;28;20232;-70
2021/12/04 17:18:40;;;;;;;2.07;1.97;;;10.20;47.50;;;;;;10236096;28;20242;-71
2021/12/04 17:23:43;;;;;;;1.00;1.00;;;10.30;47.70;;;;;;10234116;28;20232;-72
2021/12/04 17:28:46;;;;;;;1.00;1.00;;;10.30;47.50;;;;;;10233821;28;20232;-72
2021/12/04 17:33:54;;;;;;;0.80;0.80;;;10.30;47.40;;;;;;10234533;28;20587;-72
2021/12/04 17:39:00;;;;;;;1.00;0.97;;;10.30;48.00;;;;;;10243720;28;20744;-72
2021/12/04 17:44:06;;;;;;;1.10;1.10;;;10.30;47.50;;;;;;10243230;28;20240;-71
2021/12/04 17:49:12;;;;;;;1.20;1.13;;;10.40;47.70;;;;;;10243669;28;20255;-72
2021/12/04 17:54:16;;;;;;;1.10;1.10;;;10.40;47.70;;;;;;10239197;28;20236;-72
2021/12/04 17:59:29;;;;;;;1.60;1.50;;;10.40;47.40;;;;;;10242167;28;20248;-71
2021/12/04 18:04:37;;;;;;;1.33;1.27;;;10.50;47.60;;;;;;10236867;28;20243;-71
2021/12/04 18:09:42;;;;;;;1.27;1.17;;;10.50;47.70;;;;;;10240794;28;20244;-71
2021/12/04 18:14:48;;;;;;;0.90;0.90;;;10.60;47.30;;;;;;10241341;28;20236;-71
2021/12/04 18:19:54;;;;;;;0.80;0.80;;;10.60;47.30;;;;;;10241961;28;20331;-71
2021/12/04 18:24:58;;;;;;;0.80;0.80;;;10.60;47.30;;;;;;10241215;28;20264;-72
2021/12/04 18:30:01;;;;;;;0.77;0.60;;;10.60;47.00;;;;;;10241765;28;20228;-71
2021/12/04 18:35:06;;;;;;;1.00;1.00;;;10.60;47.70;;;;;;10239008;28;20581;-71
2021/12/04 18:40:13;;;;;;;0.60;0.60;;;10.60;47.00;;;;;;10239678;28;20243;-72
2021/12/04 18:45:18;;;;;;;0.80;0.80;;;10.70;47.20;;;;;;10240867;28;20239;-72
2021/12/04 18:50:23;;;;;;;0.80;0.80;;;10.70;47.00;;;;;;10240867;28;20237;-71
2021/12/04 18:55:28;;;;;;;1.20;0.90;;;10.70;47.00;;;;;;10242461;28;20244;-72
2021/12/04 19:00:42;;;;;;;1.03;1.03;;;10.70;46.90;;;;;;10240968;28;20228;-72
2021/12/04 19:05:49;;;;;;;0.90;0.90;;;10.70;46.80;;;;;;10237777;28;20267;-72
2021/12/04 19:10:53;;;;;;;1.13;1.07;;;10.70;46.80;;;;;;10239071;28;20234;-73
2021/12/04 19:15:56;;;;;;;1.23;1.00;;;10.70;46.50;;;;;;10240047;28;20236;-72
2021/12/04 19:21:02;;;;;;;1.00;1.00;;;10.70;46.50;;;;;;10238008;28;20232;-72
2021/12/04 19:26:08;;;;;;;1.10;1.00;;;10.70;46.70;;;;;;10237473;28;20306;-71
2021/12/04 19:31:14;;;;;;;1.43;1.33;;;10.70;46.50;;;;;;10229133;28;20310;-71
2021/12/04 19:52:27;;;;;;;1.20;1.20;;;10.70;46.50;;;;;;10239046;28;20254;-72
2021/12/04 19:57:37;;;;;;;0.90;0.90;;;10.80;46.60;;;;;;10237076;28;20315;-72
2021/12/04 20:02:48;;;;;;;1.10;1.00;;;10.70;46.50;;;;;;10239989;28;20698;-72
2021/12/04 20:08:08;;;;;;;1.27;0.90;;;10.80;46.60;;;;;;10235912;28;20969;-71
2021/12/04 20:18:33;;;;;;;1.33;1.23;;;10.70;46.30;;;;;;10236138;28;20706;-70
2021/12/04 20:23:39;;;;;;;1.20;1.10;;;10.70;46.30;;;;;;10235940;28;20236;-70
2021/12/04 20:29:03;;;;;;;1.00;1.00;;;10.80;46.20;;;;;;10237743;28;20610;-69
2021/12/04 20:34:14;;;;;;;1.30;1.30;;;10.80;46.30;;;;;;10233195;28;20254;-71
2021/12/04 21:39:25;;;;;;;0.87;0.87;;;10.60;45.40;;;;;;10232471;28;20243;-69
2021/12/04 21:49:56;;;;;;;0.70;0.70;;;10.60;45.30;;;;;;10226740;28;20794;-70
2021/12/04 21:55:04;;;;;;;0.87;0.87;;;10.60;46.00;;;;;;10232373;28;20322;-70
2021/12/04 22:10:57;;;;;;;1.10;1.10;;;10.50;45.10;;;;;;10237699;28;20359;-71
2021/12/04 22:16:24;;;;;;;0.93;0.93;;;10.40;45.00;;;;;;10235503;28;20232;-71
2021/12/04 22:55:05;;;;;;;0.93;0.93;;;10.30;44.60;;;;;;10241542;28;20616;-71
2021/12/04 22:59:21;;;;;;;0.83;0.83;;;9.90;46.00;;;;;;10244231;28;20259;-71
2021/12/04 23:04:47;;;;;;;0.90;0.90;;;9.80;45.20;;;;;;10237663;28;20236;-70
2021/12/04 23:15:20;;;;;;;1.10;1.00;;;9.60;45.50;;;;;;10228266;28;20264;-71
2021/12/04 23:36:45;;;;;;;0.90;0.90;;;9.20;45.80;;;;;;10241529;28;20294;-70
2021/12/04 23:42:11;;;;;;;1.20;1.10;;;9.10;46.70;;;;;;10233183;28;20737;-70
2021/12/04 23:53:09;;;;;;;0.90;0.90;;;9.20;46.00;;;;;;10245199;28;20243;-70
